Time;durP1;ratioP1;P1;durP2;ratioP2;P2;SDS_P1;SDS_P2;PMS_P1;PMS_P2;Temp;Humidity;BMP_temperature;BMP_pressure;BME280_temperature;BME280_humidity;BME280_pressure;Samples;Min_cycle;Max_cycle;Signal;HPM_P1;HPM_P2
2021/05/21 00:01:22;;;;;;;2.87;2.53;;;12.40;99.90;;;;;;5112849;28;20195;-62
2021/05/21 00:03:49;;;;;;;5.47;2.57;;;12.40;99.90;;;;;;5112586;28;20581;-61
2021/05/21 00:06:16;;;;;;;3.50;3.20;;;12.40;99.90;;;;;;5112460;28;20211;-60
2021/05/21 00:08:44;;;;;;;3.53;2.60;;;12.40;99.90;;;;;;5112270;28;20282;-61
2021/05/21 00:11:12;;;;;;;2.90;2.60;;;12.40;99.90;;;;;;5115168;28;20299;-62
2021/05/21 00:13:39;;;;;;;3.30;2.80;;;12.40;99.90;;;;;;5116549;28;20302;-61
2021/05/21 00:16:06;;;;;;;3.07;2.80;;;12.30;99.90;;;;;;5116646;28;20223;-61
2021/05/21 00:18:34;;;;;;;3.10;2.80;;;12.10;99.90;;;;;;5116354;28;20286;-60
2021/05/21 00:21:01;;;;;;;3.63;3.27;;;12.10;99.90;;;;;;5116763;28;20206;-61
2021/05/21 00:23:28;;;;;;;2.80;2.60;;;12.10;99.90;;;;;;5116550;28;20199;-62
2021/05/21 00:25:56;;;;;;;2.97;2.63;;;12.00;99.90;;;;;;5116576;28;20238;-61
2021/05/21 00:28:24;;;;;;;3.33;3.03;;;11.90;99.90;;;;;;5116087;28;20299;-61
2021/05/21 00:30:51;;;;;;;2.87;2.67;;;11.80;99.90;;;;;;5115991;28;20294;-61
2021/05/21 00:33:18;;;;;;;3.93;2.80;;;11.60;99.90;;;;;;5116157;28;20659;-61
2021/05/21 00:35:46;;;;;;;3.50;3.20;;;11.60;99.90;;;;;;5116397;28;20291;-61
2021/05/21 00:38:13;;;;;;;3.20;2.90;;;11.50;99.90;;;;;;5116069;28;20235;-62
2021/05/21 00:40:41;;;;;;;3.27;2.97;;;11.50;99.90;;;;;;5116342;28;20286;-62
2021/05/21 00:43:08;;;;;;;4.03;2.90;;;11.60;99.90;;;;;;5116216;28;20285;-61
2021/05/21 00:45:36;;;;;;;3.20;2.90;;;11.70;99.90;;;;;;5116096;28;20218;-61
2021/05/21 00:48:04;;;;;;;3.47;3.17;;;11.60;99.90;;;;;;5116185;28;20238;-62
2021/05/21 00:50:32;;;;;;;3.27;2.93;;;11.70;99.90;;;;;;5116095;28;20235;-61
2021/05/21 00:53:00;;;;;;;3.57;3.27;;;11.60;99.90;;;;;;5115792;28;20298;-60
2021/05/21 00:55:27;;;;;;;3.23;3.03;;;11.60;99.90;;;;;;5115749;28;20206;-61
2021/05/21 00:57:55;;;;;;;3.57;3.27;;;11.50;99.90;;;;;;5115541;28;20290;-61
2021/05/21 01:00:22;;;;;;;4.83;3.17;;;11.60;99.90;;;;;;5115369;28;20210;-61
2021/05/21 01:02:50;;;;;;;3.50;3.20;;;11.60;99.90;;;;;;5115888;28;20292;-61
2021/05/21 01:05:17;;;;;;;3.50;3.20;;;11.60;99.90;;;;;;5115815;28;20307;-62
2021/05/21 01:07:45;;;;;;;3.10;2.80;;;11.70;99.90;;;;;;5114797;28;20282;-62
2021/05/21 01:10:12;;;;;;;3.63;3.20;;;11.60;99.90;;;;;;5115128;28;20230;-61
2021/05/21 01:12:40;;;;;;;3.37;3.07;;;11.60;99.90;;;;;;5115160;28;20669;-61
2021/05/21 01:15:08;;;;;;;3.30;3.00;;;11.50;99.90;;;;;;5115336;28;20234;-63
2021/05/21 01:17:35;;;;;;;3.30;3.00;;;11.50;99.90;;;;;;5115438;28;20283;-61
2021/05/21 01:20:05;;;;;;;4.00;3.33;;;11.50;99.90;;;;;;5115150;28;20238;-62
2021/05/21 01:22:33;;;;;;;3.40;3.10;;;11.50;99.90;;;;;;5115051;28;20669;-62
2021/05/21 01:25:01;;;;;;;4.10;3.20;;;11.60;99.90;;;;;;5115333;28;20310;-62
2021/05/21 01:27:28;;;;;;;3.67;3.27;;;11.60;99.90;;;;;;5114863;28;20298;-62
2021/05/21 01:29:55;;;;;;;4.43;3.20;;;11.60;99.90;;;;;;5114780;28;20238;-62
2021/05/21 01:32:23;;;;;;;3.47;3.17;;;11.70;99.90;;;;;;5115081;28;20290;-62
2021/05/21 01:34:51;;;;;;;4.73;3.60;;;11.70;99.90;;;;;;5115128;28;20200;-62
2021/05/21 01:37:20;;;;;;;3.67;3.30;;;11.80;99.90;;;;;;5114950;28;20303;-62
2021/05/21 01:39:50;;;;;;;4.00;3.70;;;11.80;99.90;;;;;;5114920;28;20294;-62
2021/05/21 01:42:19;;;;;;;4.20;3.80;;;11.80;99.90;;;;;;5114671;28;20195;-64
2021/05/21 01:44:50;;;;;;;3.80;3.50;;;11.70;99.90;;;;;;5114651;28;20223;-62
2021/05/21 01:47:17;;;;;;;4.23;3.80;;;11.70;99.90;;;;;;5114970;28;20262;-63
2021/05/21 01:49:44;;;;;;;3.87;3.50;;;11.80;99.90;;;;;;5114912;28;20234;-63
2021/05/21 01:52:12;;;;;;;3.87;3.37;;;11.90;99.90;;;;;;5114702;28;20306;-63
2021/05/21 01:54:39;;;;;;;3.83;3.53;;;11.90;99.90;;;;;;5114757;28;20192;-63
2021/05/21 01:57:07;;;;;;;4.53;3.50;;;11.80;99.90;;;;;;5114345;28;20745;-62
2021/05/21 01:59:34;;;;;;;3.43;3.13;;;11.80;99.90;;;;;;5114227;28;20290;-63
2021/05/21 02:02:02;;;;;;;4.20;3.37;;;11.70;99.90;;;;;;5114556;28;20203;-64
2021/05/21 02:04:32;;;;;;;4.93;3.43;;;11.60;99.90;;;;;;5114464;28;20215;-65
2021/05/21 02:06:59;;;;;;;4.27;3.50;;;11.70;99.90;;;;;;5114256;28;20661;-65
2021/05/21 02:09:28;;;;;;;3.70;3.40;;;11.70;99.90;;;;;;5114041;28;20291;-63
2021/05/21 02:11:55;;;;;;;3.83;3.43;;;11.70;99.90;;;;;;5114254;28;20235;-63
2021/05/21 02:14:24;;;;;;;3.27;2.97;;;11.80;99.90;;;;;;5114051;28;20621;-68
2021/05/21 02:16:51;;;;;;;3.90;3.50;;;11.80;99.90;;;;;;5113903;28;20652;-67
2021/05/21 02:19:19;;;;;;;3.37;3.07;;;11.80;99.90;;;;;;5114174;28;20243;-67
2021/05/21 02:21:46;;;;;;;4.37;3.40;;;11.70;99.90;;;;;;5113857;28;20205;-68
2021/05/21 02:24:14;;;;;;;3.80;3.10;;;11.70;99.90;;;;;;5113584;28;20639;-67
2021/05/21 02:26:41;;;;;;;3.40;3.10;;;11.60;99.90;;;;;;5113958;28;20195;-67
2021/05/21 02:29:09;;;;;;;3.50;3.20;;;11.60;99.90;;;;;;5114006;28;20301;-67
2021/05/21 02:31:37;;;;;;;4.40;3.37;;;11.50;99.90;;;;;;5113757;28;20199;-67
2021/05/21 02:34:04;;;;;;;4.33;3.07;;;11.50;99.90;;;;;;5113478;28;20546;-67
2021/05/21 02:36:32;;;;;;;3.27;3.07;;;11.40;99.90;;;;;;5113918;28;20217;-66
2021/05/21 02:38:59;;;;;;;4.87;3.00;;;11.30;99.90;;;;;;5113432;28;20235;-66
2021/05/21 02:41:27;;;;;;;3.20;2.90;;;11.30;99.90;;;;;;5113703;28;20297;-64
2021/05/21 02:43:54;;;;;;;7.10;3.60;;;11.30;99.90;;;;;;5113831;28;20227;-63
2021/05/21 02:46:21;;;;;;;3.57;3.27;;;11.20;99.90;;;;;;5113033;28;20696;-62
2021/05/21 02:48:49;;;;;;;4.07;3.20;;;11.30;99.90;;;;;;5113695;28;20203;-61
2021/05/21 02:51:17;;;;;;;3.23;2.93;;;11.30;99.90;;;;;;5113732;28;20200;-61
2021/05/21 02:53:44;;;;;;;3.37;3.17;;;11.40;99.90;;;;;;5113441;28;20237;-61
2021/05/21 02:56:11;;;;;;;3.87;3.00;;;11.30;99.90;;;;;;5113403;28;20234;-62
2021/05/21 02:58:38;;;;;;;3.50;3.20;;;11.40;99.90;;;;;;5113230;28;20195;-62
2021/05/21 03:01:06;;;;;;;4.77;3.20;;;11.30;99.90;;;;;;5113275;28;20298;-61
2021/05/21 03:03:33;;;;;;;3.43;3.13;;;11.30;99.90;;;;;;5113542;28;20231;-63
2021/05/21 03:06:01;;;;;;;3.27;2.93;;;11.30;99.90;;;;;;5113488;28;20384;-62
2021/05/21 03:08:29;;;;;;;3.40;3.10;;;11.30;99.90;;;;;;5113516;28;20294;-61
2021/05/21 03:10:56;;;;;;;3.73;3.43;;;11.40;99.90;;;;;;5113476;28;20306;-62
2021/05/21 03:13:23;;;;;;;4.10;3.10;;;11.50;99.90;;;;;;5113218;28;20195;-62
2021/05/21 03:15:51;;;;;;;3.80;2.97;;;11.60;99.90;;;;;;5113032;28;20733;-62
2021/05/21 03:18:22;;;;;;;3.23;2.93;;;11.80;99.90;;;;;;5113089;28;20207;-62
2021/05/21 03:20:50;;;;;;;3.80;3.50;;;11.70;99.90;;;;;;5113498;28;20283;-61
2021/05/21 03:23:19;;;;;;;4.13;3.33;;;11.70;99.90;;;;;;5113109;28;20689;-62
2021/05/21 03:25:46;;;;;;;3.63;3.13;;;11.70;99.90;;;;;;5112982;28;20800;-61
2021/05/21 03:28:18;;;;;;;3.97;3.53;;;11.70;99.90;;;;;;5113312;28;20191;-62
2021/05/21 03:30:46;;;;;;;3.33;3.03;;;11.70;99.90;;;;;;5112955;28;20292;-62
2021/05/21 03:33:13;;;;;;;3.57;3.20;;;11.60;99.90;;;;;;5113258;28;20379;-61
2021/05/21 03:35:41;;;;;;;4.10;3.50;;;11.60;99.90;;;;;;5113288;28;20191;-62
2021/05/21 03:38:09;;;;;;;3.53;3.23;;;11.60;99.90;;;;;;5112889;28;20275;-62
2021/05/21 03:40:39;;;;;;;3.30;3.00;;;11.70;99.90;;;;;;5113206;28;20205;-61
2021/05/21 03:43:07;;;;;;;3.60;3.30;;;11.80;99.90;;;;;;5112730;28;20641;-62
2021/05/21 03:45:35;;;;;;;4.37;3.00;;;11.80;99.90;;;;;;5114480;28;20221;-61
2021/05/21 03:48:02;;;;;;;3.00;2.80;;;11.90;99.90;;;;;;5117356;28;20290;-61
2021/05/21 03:50:30;;;;;;;3.40;3.10;;;12.00;99.90;;;;;;5116998;28;20283;-61
2021/05/21 03:52:57;;;;;;;3.40;3.10;;;12.10;99.90;;;;;;5117205;28;20195;-62
2021/05/21 03:55:25;;;;;;;3.57;2.97;;;12.10;99.90;;;;;;5117311;28;20195;-62
2021/05/21 03:57:55;;;;;;;3.93;3.10;;;12.10;99.90;;;;;;5116749;28;20234;-62
2021/05/21 04:00:23;;;;;;;3.03;2.70;;;12.10;99.90;;;;;;5116898;28;20205;-62
2021/05/21 04:02:51;;;;;;;3.67;3.10;;;12.10;99.90;;;;;;5116807;28;20563;-62
2021/05/21 04:05:18;;;;;;;3.23;2.87;;;12.10;99.90;;;;;;5116954;28;20211;-61
2021/05/21 04:07:47;;;;;;;3.37;3.07;;;12.10;99.90;;;;;;5116768;28;20217;-62
2021/05/21 04:10:14;;;;;;;3.00;2.80;;;12.30;99.90;;;;;;5117035;28;20566;-61
2021/05/21 04:12:42;;;;;;;2.80;2.60;;;12.40;99.90;;;;;;5116624;28;20305;-61
2021/05/21 04:15:11;;;;;;;3.27;2.97;;;12.50;99.90;;;;;;5116828;28;20249;-62
2021/05/21 04:17:39;;;;;;;3.43;3.20;;;12.60;99.90;;;;;;5116743;28;20283;-61
2021/05/21 04:20:07;;;;;;;3.47;3.03;;;12.60;99.90;;;;;;5116809;28;20195;-62
2021/05/21 04:22:34;;;;;;;4.30;2.87;;;12.70;99.90;;;;;;5116632;28;20604;-61
2021/05/21 04:25:02;;;;;;;3.10;2.80;;;12.80;99.90;;;;;;5116637;28;20219;-62
2021/05/21 04:27:29;;;;;;;3.30;3.00;;;12.80;99.90;;;;;;5116473;28;20421;-61
2021/05/21 04:29:57;;;;;;;3.27;2.97;;;12.90;99.90;;;;;;5116096;28;20521;-62
2021/05/21 04:32:25;;;;;;;3.13;2.83;;;12.80;99.90;;;;;;5116451;28;20206;-62
2021/05/21 04:34:53;;;;;;;4.00;2.70;;;12.90;99.90;;;;;;5116419;28;20257;-63
2021/05/21 04:37:20;;;;;;;2.83;2.53;;;13.00;99.90;;;;;;5115861;28;20661;-62
2021/05/21 04:39:47;;;;;;;3.27;3.07;;;13.10;99.90;;;;;;5114721;28;20638;-62
2021/05/21 04:42:35;;;;;;;3.20;2.90;;;13.10;99.90;;;;;;5114841;28;20191;-61
2021/05/21 04:45:02;;;;;;;5.60;5.00;;;13.00;99.90;;;;;;5114741;28;20298;-63
2021/05/21 04:47:31;;;;;;;3.20;2.93;;;13.10;99.90;;;;;;5114622;28;20549;-62
2021/05/21 04:49:58;;;;;;;2.87;2.50;;;13.20;99.90;;;;;;5114976;28;20286;-62
2021/05/21 04:52:25;;;;;;;3.20;2.90;;;13.20;99.90;;;;;;5114529;28;20317;-62
2021/05/21 04:54:53;;;;;;;2.80;2.60;;;13.30;99.90;;;;;;5114344;28;20268;-62
2021/05/21 04:57:20;;;;;;;4.70;2.57;;;13.30;99.90;;;;;;5114048;28;20199;-63
2021/05/21 04:59:49;;;;;;;3.10;2.80;;;13.30;99.90;;;;;;5114252;28;20694;-62
2021/05/21 05:02:16;;;;;;;3.73;3.30;;;13.40;99.90;;;;;;5114614;28;20290;-64
2021/05/21 05:04:44;;;;;;;3.03;2.80;;;13.40;99.90;;;;;;5114566;28;20239;-62
2021/05/21 05:07:12;;;;;;;2.50;2.30;;;13.50;99.90;;;;;;5114443;28;20216;-62
2021/05/21 05:09:39;;;;;;;2.57;2.37;;;13.60;99.90;;;;;;5114594;28;20200;-63
2021/05/21 05:12:07;;;;;;;2.40;2.20;;;13.90;99.90;;;;;;5114411;28;20294;-61
2021/05/21 05:14:35;;;;;;;3.40;2.30;;;14.20;99.90;;;;;;5096318;28;20242;-62
2021/05/21 05:17:02;;;;;;;2.57;2.20;;;14.70;99.90;;;;;;5114181;28;20612;-62
2021/05/21 05:19:30;;;;;;;2.72;2.20;;;15.10;99.90;;;;;;5114422;28;20265;-63
2021/05/21 05:21:58;;;;;;;3.15;2.15;;;15.40;99.90;;;;;;5114021;28;20286;-61
2021/05/21 05:24:27;;;;;;;2.60;2.15;;;15.60;99.90;;;;;;5113942;28;20693;-62
2021/05/21 05:26:55;;;;;;;2.87;2.37;;;15.60;99.90;;;;;;5113707;28;20314;-62
2021/05/21 05:29:22;;;;;;;2.80;2.60;;;15.30;99.90;;;;;;5114234;28;20290;-63
2021/05/21 05:31:49;;;;;;;2.83;2.20;;;15.00;99.90;;;;;;5114273;28;20492;-61
2021/05/21 05:34:17;;;;;;;2.00;1.80;;;14.90;99.90;;;;;;5114125;28;20195;-62
2021/05/21 05:36:44;;;;;;;2.10;1.90;;;15.10;99.90;;;;;;5114067;28;20286;-62
2021/05/21 05:39:12;;;;;;;2.40;2.20;;;15.00;99.90;;;;;;5093441;28;591066;-62
2021/05/21 05:41:40;;;;;;;3.53;2.10;;;15.00;99.90;;;;;;5114956;28;20211;-62
2021/05/21 05:44:07;;;;;;;2.37;2.17;;;15.00;99.90;;;;;;5114693;28;20640;-62
2021/05/21 05:46:34;;;;;;;2.45;2.25;;;14.90;99.90;;;;;;5114721;28;20226;-63
2021/05/21 05:49:02;;;;;;;3.83;2.20;;;14.90;99.90;;;;;;5113868;28;20195;-62
2021/05/21 05:51:29;;;;;;;2.63;2.30;;;14.90;99.90;;;;;;5114313;28;20213;-62
2021/05/21 05:53:56;;;;;;;2.67;2.30;;;14.80;99.90;;;;;;5114436;28;20404;-61
2021/05/21 05:56:24;;;;;;;6.95;2.20;;;14.80;99.90;;;;;;5114465;28;20192;-61
2021/05/21 05:58:52;;;;;;;3.20;2.00;;;14.90;99.90;;;;;;5114046;28;20199;-62
2021/05/21 06:01:20;;;;;;;2.40;2.20;;;15.10;99.90;;;;;;5113882;28;20663;-62
2021/05/21 06:03:47;;;;;;;4.30;1.97;;;15.20;99.90;;;;;;5114501;28;20278;-62
2021/05/21 06:06:17;;;;;;;2.37;2.10;;;15.30;99.90;;;;;;5114381;28;20219;-63
2021/05/21 06:08:55;;;;;;;2.30;2.20;;;15.00;99.90;;;;;;5113832;28;20206;-61
2021/05/21 06:11:23;;;;;;;3.50;2.20;;;15.00;99.90;;;;;;5114493;28;20293;-62
2021/05/21 06:13:51;;;;;;;2.73;2.00;;;14.90;99.90;;;;;;5114119;28;20697;-62
2021/05/21 06:16:18;;;;;;;2.20;2.00;;;15.20;99.90;;;;;;5114276;28;20250;-62
2021/05/21 06:18:47;;;;;;;3.20;2.07;;;15.60;99.90;;;;;;5114094;28;20207;-61
2021/05/21 06:21:15;;;;;;;1.70;1.60;;;15.70;99.90;;;;;;5114325;28;20549;-62
2021/05/21 06:23:44;;;;;;;1.97;1.80;;;15.70;99.90;;;;;;5114156;28;20203;-61
2021/05/21 06:26:16;;;;;;;2.28;2.00;;;15.60;99.90;;;;;;5114185;28;20273;-61
2021/05/21 06:28:44;;;;;;;4.57;2.13;;;15.50;99.90;;;;;;5114038;28;20184;-62
2021/05/21 06:31:12;;;;;;;3.40;1.70;;;15.50;99.90;;;;;;5113665;28;20207;-62
2021/05/21 06:33:40;;;;;;;2.72;1.77;;;15.60;99.90;;;;;;5113591;28;20268;-63
2021/05/21 06:36:07;;;;;;;2.20;2.00;;;15.70;99.90;;;;;;5113754;28;20200;-62
2021/05/21 06:38:35;;;;;;;1.92;1.83;;;15.80;99.90;;;;;;5113602;28;20227;-62
2021/05/21 06:41:03;;;;;;;2.33;2.10;;;15.90;99.90;;;;;;5113997;28;20202;-62
2021/05/21 06:43:31;;;;;;;1.83;1.73;;;16.30;99.90;;;;;;5113536;28;20227;-62
2021/05/21 06:46:01;;;;;;;4.55;2.00;;;16.50;99.90;;;;;;5113241;28;20305;-61
2021/05/21 06:48:31;;;;;;;1.98;1.70;;;16.60;99.90;;;;;;5113168;28;20293;-62
2021/05/21 06:51:00;;;;;;;2.15;1.75;;;16.70;99.90;;;;;;5113250;28;20206;-61
2021/05/21 06:53:28;;;;;;;4.05;1.77;;;16.70;99.90;;;;;;5113065;28;20294;-61
2021/05/21 06:55:55;;;;;;;1.80;1.70;;;16.70;99.90;;;;;;5112697;28;20291;-62
2021/05/21 06:58:25;;;;;;;2.15;1.67;;;16.80;99.90;;;;;;5113123;28;20784;-61
2021/05/21 07:00:54;;;;;;;1.77;1.60;;;16.80;99.90;;;;;;5113186;28;20705;-61
2021/05/21 07:03:25;;;;;;;1.98;1.55;;;16.70;99.90;;;;;;5113632;28;20246;-62
2021/05/21 07:05:52;;;;;;;1.95;1.60;;;16.70;99.90;;;;;;5113502;28;20183;-62
2021/05/21 07:08:20;;;;;;;2.35;1.60;;;16.60;99.90;;;;;;5113559;28;20239;-62
2021/05/21 07:10:47;;;;;;;2.00;1.50;;;16.50;99.90;;;;;;5113575;28;20608;-62
2021/05/21 07:13:16;;;;;;;1.80;1.40;;;16.50;99.90;;;;;;5113295;28;20232;-62
2021/05/21 07:15:44;;;;;;;2.75;1.60;;;16.70;99.90;;;;;;5113359;28;20199;-62
2021/05/21 07:18:13;;;;;;;4.78;1.98;;;16.70;99.90;;;;;;5113015;28;20285;-62
2021/05/21 07:20:42;;;;;;;3.42;1.60;;;16.60;99.90;;;;;;5113299;28;20230;-62
2021/05/21 07:23:09;;;;;;;1.42;1.33;;;16.70;99.90;;;;;;5113119;28;20199;-63
2021/05/21 07:25:37;;;;;;;2.35;1.42;;;16.80;99.90;;;;;;5113137;28;20282;-63
2021/05/21 07:28:04;;;;;;;1.50;1.40;;;16.90;99.90;;;;;;5113048;28;20310;-62
2021/05/21 07:30:32;;;;;;;2.33;1.42;;;16.80;99.90;;;;;;5113153;28;20195;-62
2021/05/21 07:32:59;;;;;;;1.73;1.30;;;16.70;99.90;;;;;;5113319;28;20200;-62
2021/05/21 07:35:27;;;;;;;1.67;1.40;;;16.70;99.90;;;;;;5112941;28;20302;-62
2021/05/21 07:37:55;;;;;;;3.17;1.38;;;16.50;99.90;;;;;;5112930;28;20316;-62
2021/05/21 07:40:24;;;;;;;2.30;1.40;;;16.60;99.90;;;;;;5112841;28;20686;-61
2021/05/21 07:42:52;;;;;;;2.22;1.35;;;16.60;99.90;;;;;;5112678;28;20924;-62
2021/05/21 07:45:19;;;;;;;1.80;1.42;;;16.70;99.90;;;;;;5112945;28;20242;-61
2021/05/21 07:47:47;;;;;;;2.40;1.60;;;16.70;99.90;;;;;;5113077;28;20222;-62
2021/05/21 07:50:15;;;;;;;1.70;1.40;;;16.80;99.90;;;;;;5113035;28;20198;-62
2021/05/21 07:52:42;;;;;;;1.48;1.30;;;16.90;99.90;;;;;;5112935;28;20203;-62
2021/05/21 07:55:12;;;;;;;1.38;1.27;;;16.90;99.90;;;;;;5113026;28;20291;-62
2021/05/21 07:57:40;;;;;;;1.60;1.35;;;16.90;99.90;;;;;;5113058;28;20222;-62
2021/05/21 08:00:09;;;;;;;1.77;1.58;;;17.00;99.90;;;;;;5112928;28;20572;-62
2021/05/21 08:02:36;;;;;;;1.48;1.30;;;17.20;99.90;;;;;;5113012;28;20289;-62
2021/05/21 08:05:05;;;;;;;2.47;1.50;;;17.30;99.90;;;;;;5112881;28;20199;-63
2021/05/21 08:07:33;;;;;;;1.88;1.40;;;17.40;99.90;;;;;;5112609;28;20733;-62
2021/05/21 08:10:02;;;;;;;1.70;1.40;;;17.50;99.90;;;;;;5112981;28;20305;-62
2021/05/21 08:12:30;;;;;;;3.85;1.25;;;17.50;99.90;;;;;;5112537;28;20199;-63
2021/05/21 08:14:58;;;;;;;2.17;1.33;;;17.60;99.90;;;;;;5112523;28;20663;-62
2021/05/21 08:17:25;;;;;;;2.50;1.40;;;17.70;99.90;;;;;;5112790;28;20195;-62
2021/05/21 08:20:09;;;;;;;1.60;1.42;;;17.90;99.90;;;;;;5112750;28;20179;-62
2021/05/21 08:22:37;;;;;;;3.13;1.30;;;18.10;99.90;;;;;;5112759;28;20206;-64
2021/05/21 08:25:05;;;;;;;2.80;1.10;;;18.30;99.90;;;;;;5112820;28;20602;-62
2021/05/21 08:27:34;;;;;;;0.80;0.80;;;18.60;99.90;;;;;;5112510;28;20302;-63
2021/05/21 08:30:02;;;;;;;1.10;0.90;;;18.50;99.90;;;;;;5112647;28;20250;-63
2021/05/21 08:32:29;;;;;;;1.52;1.20;;;18.60;99.90;;;;;;5115465;28;20200;-63
2021/05/21 08:34:56;;;;;;;2.35;0.85;;;18.70;99.90;;;;;;5116022;28;20298;-62
2021/05/21 08:37:24;;;;;;;4.47;1.15;;;18.70;99.90;;;;;;5115901;28;20287;-62
2021/05/21 08:39:52;;;;;;;1.75;1.00;;;18.80;99.90;;;;;;5116424;28;20192;-64
2021/05/21 08:42:21;;;;;;;2.55;1.20;;;18.90;99.90;;;;;;5116266;28;20234;-63
2021/05/21 08:44:53;;;;;;;1.77;1.20;;;19.00;99.90;;;;;;5116230;28;20225;-65
2021/05/21 08:47:21;;;;;;;3.70;1.27;;;19.00;99.90;;;;;;5116240;28;20235;-63
2021/05/21 08:49:49;;;;;;;3.17;1.17;;;19.10;99.90;;;;;;5115491;28;20203;-62
2021/05/21 08:52:17;;;;;;;2.63;1.17;;;19.20;99.90;;;;;;5115409;28;20730;-62
2021/05/21 08:54:45;;;;;;;0.88;0.88;;;19.20;99.90;;;;;;5116055;28;20303;-64
2021/05/21 08:57:19;;;;;;;2.55;1.10;;;19.50;99.90;;;;;;5114747;28;20272;-61
2021/05/21 08:59:47;;;;;;;4.10;1.10;;;19.30;99.90;;;;;;5115831;28;20187;-62
2021/05/21 09:02:22;;;;;;;3.45;1.00;;;19.20;99.90;;;;;;5115662;28;20707;-63
2021/05/21 09:04:54;;;;;;;3.45;1.30;;;18.90;99.90;;;;;;5115617;28;20278;-62
2021/05/21 09:07:23;;;;;;;2.85;1.30;;;18.80;99.90;;;;;;5115868;28;20427;-63
2021/05/21 09:09:52;;;;;;;2.28;0.90;;;18.70;99.90;;;;;;5115581;28;20604;-63
2021/05/21 09:12:22;;;;;;;3.75;1.20;;;18.70;99.90;;;;;;5115334;28;20294;-62
2021/05/21 09:15:03;;;;;;;1.40;1.10;;;18.70;99.90;;;;;;5115811;28;20234;-62
2021/05/21 09:17:32;;;;;;;2.28;1.00;;;18.70;99.90;;;;;;5115600;28;20278;-63
2021/05/21 09:20:00;;;;;;;1.45;1.30;;;18.80;99.90;;;;;;5115544;28;20227;-62
2021/05/21 09:22:59;;;;;;;3.05;1.00;;;19.00;99.90;;;;;;5115415;28;20195;-63
2021/05/21 09:25:37;;;;;;;3.30;1.20;;;19.10;99.90;;;;;;5115060;28;20211;-62
2021/05/21 09:28:05;;;;;;;1.85;1.08;;;19.20;99.90;;;;;;5115043;28;20254;-62
2021/05/21 09:30:32;;;;;;;2.00;0.95;;;19.20;99.90;;;;;;5115140;28;20282;-62
2021/05/21 09:33:05;;;;;;;4.57;1.27;;;19.20;99.90;;;;;;5115530;28;20204;-62
2021/05/21 09:35:32;;;;;;;3.17;1.17;;;19.10;99.90;;;;;;5114897;28;20230;-62
2021/05/21 09:38:00;;;;;;;2.03;1.00;;;19.10;99.90;;;;;;5114878;28;20227;-62
2021/05/21 09:40:28;;;;;;;1.23;1.13;;;19.10;99.90;;;;;;5114615;28;20290;-63
2021/05/21 09:42:57;;;;;;;2.28;1.00;;;19.10;99.90;;;;;;5113769;28;20265;-64
2021/05/21 09:45:27;;;;;;;4.35;0.95;;;19.10;99.90;;;;;;5114933;28;20290;-63
2021/05/21 09:47:57;;;;;;;3.20;1.15;;;19.30;99.90;;;;;;5114914;28;20302;-62
2021/05/21 09:50:37;;;;;;;2.10;1.15;;;19.40;99.90;;;;;;5114784;28;20298;-63
2021/05/21 09:53:07;;;;;;;1.60;1.10;;;19.50;99.90;;;;;;5114724;28;20244;-62
2021/05/21 09:55:38;;;;;;;1.38;1.25;;;19.80;99.90;;;;;;5113947;28;20237;-61
2021/05/21 09:58:06;;;;;;;2.70;1.20;;;19.90;99.90;;;;;;5111768;28;20191;-62
2021/05/21 10:00:34;;;;;;;2.72;0.95;;;20.00;99.90;;;;;;5114302;28;20294;-62
2021/05/21 10:03:03;;;;;;;3.33;1.20;;;20.20;99.90;;;;;;5114381;28;20209;-63
2021/05/21 10:05:51;;;;;;;2.22;1.20;;;20.50;99.90;;;;;;5113880;28;20203;-63
2021/05/21 10:08:18;;;;;;;4.35;1.30;;;20.60;99.90;;;;;;5114056;28;20310;-62
2021/05/21 10:10:47;;;;;;;2.25;1.20;;;20.70;99.90;;;;;;5114519;28;20207;-62
2021/05/21 10:13:14;;;;;;;1.85;1.10;;;20.70;99.90;;;;;;5113860;28;20294;-63
2021/05/21 10:15:42;;;;;;;1.73;1.02;;;20.70;99.90;;;;;;5114328;28;20337;-62
2021/05/21 10:18:13;;;;;;;0.95;0.82;;;20.70;99.90;;;;;;5114262;28;20213;-62
2021/05/21 10:20:43;;;;;;;2.00;1.13;;;20.70;99.90;;;;;;5110771;28;20330;-62
2021/05/21 10:23:16;;;;;;;3.10;1.13;;;20.70;99.90;;;;;;5114142;28;20539;-62
2021/05/21 10:25:45;;;;;;;2.42;1.05;;;20.70;99.90;;;;;;5113995;28;20207;-62
2021/05/21 10:28:13;;;;;;;3.30;1.10;;;20.60;99.90;;;;;;5113780;28;20322;-62
2021/05/21 10:30:41;;;;;;;2.97;0.98;;;20.60;99.90;;;;;;5113501;28;20695;-62
2021/05/21 10:33:22;;;;;;;1.90;0.88;;;20.50;99.90;;;;;;5113761;28;20298;-62
2021/05/21 10:35:49;;;;;;;2.67;1.20;;;20.60;99.90;;;;;;5113633;28;20192;-62
2021/05/21 10:38:20;;;;;;;3.47;1.10;;;20.80;99.90;;;;;;5113398;28;20762;-63
2021/05/21 10:41:13;;;;;;;1.70;1.00;;;21.00;99.90;;;;;;5113602;28;20211;-62
2021/05/21 10:43:48;;;;;;;3.22;1.17;;;21.10;99.90;;;;;;5113487;28;20592;-62
2021/05/21 10:46:17;;;;;;;3.03;0.88;;;21.20;99.90;;;;;;5113496;28;20277;-63
2021/05/21 10:48:56;;;;;;;2.33;0.88;;;21.00;99.90;;;;;;5113369;28;20699;-62
2021/05/21 10:51:25;;;;;;;2.72;0.90;;;20.80;99.90;;;;;;5113257;28;20202;-62
2021/05/21 10:54:25;;;;;;;2.22;0.93;;;20.60;99.90;;;;;;5113292;28;20290;-61
2021/05/21 10:56:55;;;;;;;2.03;1.02;;;20.30;99.90;;;;;;5113307;28;21110;-62
2021/05/21 10:59:41;;;;;;;2.70;0.75;;;20.20;99.90;;;;;;5113365;28;20187;-61
2021/05/21 11:02:09;;;;;;;1.05;0.90;;;20.00;99.90;;;;;;5095332;28;20215;-62
2021/05/21 11:04:36;;;;;;;2.33;0.93;;;19.90;99.90;;;;;;5113118;28;20192;-62
2021/05/21 11:07:04;;;;;;;1.77;0.90;;;19.90;99.90;;;;;;5113116;28;20195;-61
2021/05/21 11:09:41;;;;;;;1.27;0.82;;;20.00;99.90;;;;;;5113327;28;20228;-62
2021/05/21 11:12:09;;;;;;;6.60;1.67;;;20.20;99.90;;;;;;5113350;28;20270;-63
2021/05/21 11:14:41;;;;;;;1.10;0.80;;;20.60;99.90;;;;;;5112840;28;20564;-61
2021/05/21 11:17:17;;;;;;;2.72;0.90;;;20.80;99.90;;;;;;5113349;28;20187;-62
2021/05/21 11:19:48;;;;;;;2.40;0.80;;;21.00;99.90;;;;;;5112940;28;20263;-62
2021/05/21 11:22:23;;;;;;;0.75;0.73;;;21.10;99.90;;;;;;5113163;28;20184;-63
2021/05/21 11:24:57;;;;;;;2.67;0.70;;;21.10;99.90;;;;;;5112968;28;20673;-62
2021/05/21 11:27:28;;;;;;;1.77;0.80;;;21.10;99.90;;;;;;5113080;28;20281;-61
2021/05/21 11:29:56;;;;;;;5.88;1.63;;;21.10;99.90;;;;;;5112803;28;20681;-63
2021/05/21 11:32:26;;;;;;;1.02;0.70;;;21.00;99.90;;;;;;5112861;28;20207;-62
2021/05/21 11:34:54;;;;;;;1.80;0.88;;;21.00;99.90;;;;;;5113045;28;20213;-63
2021/05/21 11:37:22;;;;;;;0.98;0.70;;;20.90;99.90;;;;;;5113042;28;20215;-63
2021/05/21 11:39:52;;;;;;;2.40;1.00;;;21.00;99.90;;;;;;5113059;28;20542;-63
2021/05/21 11:42:24;;;;;;;2.15;0.80;;;20.90;99.90;;;;;;5095370;28;20222;-63
2021/05/21 11:44:53;;;;;;;1.10;0.88;;;20.90;99.90;;;;;;5112544;28;20615;-63
2021/05/21 11:47:23;;;;;;;2.75;0.95;;;20.80;99.90;;;;;;5112965;28;20306;-64
2021/05/21 11:49:52;;;;;;;3.30;0.90;;;20.60;99.90;;;;;;5112379;28;20210;-63
2021/05/21 11:52:19;;;;;;;3.80;0.98;;;20.70;99.90;;;;;;5112501;28;20244;-62
2021/05/21 11:54:47;;;;;;;1.00;0.80;;;20.90;99.90;;;;;;5112591;28;20211;-63
2021/05/21 11:57:19;;;;;;;2.10;0.75;;;20.90;99.90;;;;;;5112941;28;20233;-62
2021/05/21 11:59:48;;;;;;;1.50;0.70;;;21.10;99.90;;;;;;5112461;28;20180;-62
2021/05/21 12:02:20;;;;;;;1.20;1.08;;;21.20;99.90;;;;;;5112423;28;20549;-62
2021/05/21 12:04:48;;;;;;;4.60;0.70;;;21.30;99.90;;;;;;5112139;28;20207;-62
2021/05/21 12:07:20;;;;;;;1.35;0.70;;;21.40;99.90;;;;;;5115402;28;20251;-62
2021/05/21 12:10:00;;;;;;;1.88;0.80;;;21.40;99.90;;;;;;5096564;28;20235;-63
2021/05/21 12:12:28;;;;;;;3.25;0.90;;;21.30;99.90;;;;;;5096212;28;20195;-62
2021/05/21 12:15:07;;;;;;;0.88;0.88;;;21.10;99.90;;;;;;5096386;28;20202;-62
2021/05/21 12:17:36;;;;;;;3.70;0.80;;;20.90;99.90;;;;;;5111348;28;20195;-62
2021/05/21 12:20:05;;;;;;;0.65;0.63;;;20.90;99.90;;;;;;5116336;28;20678;-64
2021/05/21 12:22:33;;;;;;;1.10;0.70;;;21.00;99.90;;;;;;5116577;28;20321;-65
2021/05/21 12:25:02;;;;;;;1.95;0.80;;;21.00;99.90;;;;;;5116544;28;20195;-63
2021/05/21 12:27:31;;;;;;;1.30;0.70;;;21.00;99.90;;;;;;5116344;28;20199;-63
2021/05/21 12:29:58;;;;;;;4.40;1.02;;;20.90;99.90;;;;;;5116340;28;20203;-66
2021/05/21 12:32:28;;;;;;;1.05;0.90;;;20.90;99.90;;;;;;5115766;28;20206;-65
2021/05/21 12:34:56;;;;;;;4.13;0.80;;;20.90;99.90;;;;;;5116275;28;20199;-64
2021/05/21 12:37:24;;;;;;;1.48;0.70;;;21.00;99.90;;;;;;5115903;28;20598;-64
2021/05/21 12:39:52;;;;;;;2.00;1.00;;;21.10;99.90;;;;;;5116258;28;20188;-65
2021/05/21 12:42:21;;;;;;;1.70;0.90;;;21.00;99.90;;;;;;5115844;28;20753;-65
2021/05/21 12:44:52;;;;;;;1.77;0.85;;;20.70;99.90;;;;;;5115634;28;20215;-62
2021/05/21 12:47:20;;;;;;;1.40;0.70;;;20.50;99.90;;;;;;5115980;28;20222;-62
2021/05/21 12:49:50;;;;;;;1.60;0.80;;;20.60;99.90;;;;;;5115828;28;20596;-63
2021/05/21 12:52:17;;;;;;;1.52;0.70;;;20.60;99.90;;;;;;5115892;28;20205;-64
2021/05/21 12:54:47;;;;;;;2.25;0.80;;;20.70;99.90;;;;;;5115698;28;20234;-62
2021/05/21 12:57:19;;;;;;;1.60;0.60;;;20.50;99.90;;;;;;5115907;28;20230;-63